Time;durP1;ratioP1;P1;durP2;ratioP2;P2;SDS_P1;SDS_P2;PMS_P1;PMS_P2;Temp;Humidity;BMP_temperature;BMP_pressure;BME280_temperature;BME280_humidity;BME280_pressure;Samples;Min_cycle;Max_cycle;Signal;HPM_P1;HPM_P2
2021/11/09 00:01:54;;;;;;;22.05;10.20;;;3.00;99.90;;;;;;5062285;28;20877;-53
2021/11/09 00:04:24;;;;;;;17.05;9.40;;;2.80;99.90;;;;;;5064206;28;20430;-54
2021/11/09 00:07:06;;;;;;;21.73;9.60;;;4.30;99.90;;;;;;5066524;28;20385;-54
2021/11/09 00:09:45;;;;;;;17.33;9.90;;;2.80;99.90;;;;;;5061557;28;20422;-54
2021/11/09 00:12:11;;;;;;;22.02;9.63;;;2.80;99.90;;;;;;5081182;28;20414;-54
2021/11/09 00:14:36;;;;;;;21.87;9.40;;;2.70;99.90;;;;;;5081581;28;20539;-54
2021/11/09 00:17:03;;;;;;;21.50;9.40;;;2.70;99.90;;;;;;5084761;28;20406;-54
2021/11/09 00:19:29;;;;;;;16.80;9.55;;;2.80;99.90;;;;;;5089159;28;20394;-54
2021/11/09 00:21:55;;;;;;;22.08;9.68;;;2.80;99.90;;;;;;5082397;28;20376;-54
2021/11/09 00:24:20;;;;;;;25.03;11.67;;;2.90;99.90;;;;;;5081077;28;20543;-54
2021/11/09 00:26:47;;;;;;;19.17;9.27;;;2.90;99.90;;;;;;5081387;28;20518;-54
2021/11/09 00:29:12;;;;;;;17.90;9.77;;;3.00;99.90;;;;;;5080244;28;20391;-54
2021/11/09 00:31:38;;;;;;;19.75;9.63;;;3.00;99.90;;;;;;5086162;28;20382;-54
2021/11/09 00:34:04;;;;;;;22.10;10.20;;;3.10;99.90;;;;;;5080345;28;20895;-54
2021/11/09 00:36:31;;;;;;;19.88;9.93;;;3.60;99.90;;;;;;5081960;28;20390;-53
2021/11/09 00:38:57;;;;;;;23.58;11.25;;;2.80;99.90;;;;;;5064516;28;20544;-54
2021/11/09 00:41:23;;;;;;;24.88;10.40;;;4.10;99.90;;;;;;5085359;28;20428;-54
2021/11/09 00:43:48;;;;;;;23.50;11.10;;;2.70;99.90;;;;;;5081737;28;20886;-54
2021/11/09 00:46:14;;;;;;;28.92;11.27;;;4.50;99.90;;;;;;5080331;28;20432;-54
2021/11/09 00:48:40;;;;;;;22.42;10.85;;;2.70;99.90;;;;;;5082320;28;20396;-54
2021/11/09 00:51:06;;;;;;;24.00;11.30;;;2.70;99.90;;;;;;5084642;28;20922;-54
2021/11/09 00:53:32;;;;;;;24.77;11.53;;;3.80;99.90;;;;;;5062727;28;20408;-54
2021/11/09 00:55:57;;;;;;;23.60;12.30;;;2.90;99.90;;;;;;5081657;28;20388;-54
2021/11/09 00:58:23;;;;;;;23.88;12.10;;;2.90;99.90;;;;;;5080339;28;20410;-54
2021/11/09 01:00:49;;;;;;;27.80;12.37;;;3.30;99.90;;;;;;5082504;28;20397;-54
2021/11/09 01:03:15;;;;;;;30.37;12.67;;;4.70;99.90;;;;;;5082534;28;20414;-54
2021/11/09 01:05:42;;;;;;;29.90;13.05;;;3.10;99.90;;;;;;5075387;28;20445;-54
2021/11/09 01:08:10;;;;;;;26.52;11.90;;;3.10;99.90;;;;;;5073715;28;20916;-54
2021/11/09 01:10:43;;;;;;;28.67;13.50;;;3.10;99.90;;;;;;5076321;28;20419;-54
2021/11/09 01:13:09;;;;;;;25.33;12.07;;;3.10;99.90;;;;;;5055040;28;21044;-54
2021/11/09 01:15:38;;;;;;;24.02;12.27;;;3.10;99.90;;;;;;5075455;28;20456;-54
2021/11/09 01:18:05;;;;;;;27.25;11.60;;;3.10;99.90;;;;;;5075527;28;20454;-54
2021/11/09 01:20:31;;;;;;;24.58;12.20;;;3.10;99.90;;;;;;5063310;28;20864;-54
2021/11/09 01:22:58;;;;;;;28.85;12.07;;;3.20;99.90;;;;;;5074193;28;20484;-54
2021/11/09 01:25:26;;;;;;;22.48;11.55;;;3.30;99.90;;;;;;5059295;28;21263;-54
2021/11/09 01:27:51;;;;;;;25.13;11.75;;;4.20;99.90;;;;;;5078577;28;20413;-54
2021/11/09 01:30:19;;;;;;;25.57;11.27;;;4.10;99.90;;;;;;5073219;28;20446;-54
2021/11/09 01:32:47;;;;;;;25.92;11.43;;;3.40;99.90;;;;;;5071697;28;20531;-55
2021/11/09 01:35:13;;;;;;;19.33;11.95;;;3.60;99.90;;;;;;5074777;28;20401;-54
2021/11/09 01:37:41;;;;;;;25.63;11.80;;;3.60;99.90;;;;;;5081196;28;20380;-55
2021/11/09 01:40:08;;;;;;;26.17;12.50;;;3.70;99.90;;;;;;5078491;28;20400;-54
2021/11/09 01:42:35;;;;;;;23.60;11.68;;;3.70;99.90;;;;;;5078623;28;20412;-54
2021/11/09 01:45:00;;;;;;;25.57;12.60;;;5.10;99.90;;;;;;5081355;28;20401;-54
2021/11/09 01:47:26;;;;;;;24.23;11.93;;;3.60;99.90;;;;;;5088715;28;20394;-54
2021/11/09 01:49:52;;;;;;;21.33;10.63;;;3.60;99.90;;;;;;5069493;28;20500;-54
2021/11/09 01:52:18;;;;;;;24.13;11.77;;;3.60;99.90;;;;;;5070039;28;20446;-53
2021/11/09 01:54:44;;;;;;;26.60;12.27;;;3.60;99.90;;;;;;5069386;28;20395;-54
2021/11/09 01:57:10;;;;;;;27.47;12.40;;;3.70;99.90;;;;;;5070091;28;20923;-54
2021/11/09 01:59:36;;;;;;;22.70;11.63;;;3.80;99.90;;;;;;5069924;28;20418;-54
2021/11/09 02:02:02;;;;;;;24.70;11.23;;;3.90;99.90;;;;;;5069694;28;20384;-54
2021/11/09 02:04:28;;;;;;;23.38;11.20;;;3.80;99.90;;;;;;5069678;28;20495;-54
2021/11/09 02:06:53;;;;;;;21.77;11.80;;;5.50;99.90;;;;;;5068837;28;20458;-54
2021/11/09 02:09:19;;;;;;;25.95;11.48;;;3.80;99.90;;;;;;5070340;28;20575;-54
2021/11/09 02:11:47;;;;;;;20.30;10.45;;;3.80;99.90;;;;;;5088593;28;20504;-54
2021/11/09 02:14:14;;;;;;;25.50;11.15;;;3.80;99.90;;;;;;5089884;28;20443;-54
2021/11/09 02:16:40;;;;;;;25.77;10.75;;;4.10;99.90;;;;;;5089560;28;20389;-54
2021/11/09 02:19:06;;;;;;;20.27;11.30;;;3.60;99.90;;;;;;5089239;28;20439;-54
2021/11/09 02:21:33;;;;;;;19.13;10.23;;;4.90;99.90;;;;;;5090115;28;20382;-54
2021/11/09 02:23:59;;;;;;;23.95;11.00;;;3.70;99.90;;;;;;5089208;28;20389;-54
2021/11/09 02:26:26;;;;;;;19.88;10.52;;;3.60;99.90;;;;;;5089845;28;20927;-54
2021/11/09 02:28:56;;;;;;;20.58;10.48;;;3.60;99.90;;;;;;5088625;28;20489;-54
2021/11/09 02:31:22;;;;;;;22.60;9.77;;;3.70;99.90;;;;;;5089812;28;20464;-54
2021/11/09 02:33:48;;;;;;;20.20;10.85;;;3.70;99.90;;;;;;5088740;28;20394;-54
2021/11/09 02:36:17;;;;;;;18.73;10.10;;;3.80;99.90;;;;;;5089483;28;20985;-54
2021/11/09 02:38:43;;;;;;;21.00;11.00;;;3.90;99.90;;;;;;5089237;28;20386;-54
2021/11/09 02:41:09;;;;;;;18.90;10.02;;;5.60;99.90;;;;;;5089290;28;20394;-54
2021/11/09 02:43:35;;;;;;;19.08;9.70;;;4.10;99.90;;;;;;5089695;28;20863;-54
2021/11/09 02:49:04;;;;;;;21.02;9.85;;;3.90;99.90;;;;;;5088990;28;20378;-54
2021/11/09 02:51:40;;;;;;;17.83;9.25;;;3.70;99.90;;;;;;5089754;28;20378;-54
2021/11/09 02:59:47;;;;;;;21.05;10.05;;;3.50;99.90;;;;;;5089247;28;20404;-54
2021/11/09 03:08:10;;;;;;;20.60;9.70;;;4.70;99.90;;;;;;5074856;28;20390;-54
2021/11/09 03:10:39;;;;;;;17.90;9.52;;;3.20;99.90;;;;;;5072294;28;20709;-54
2021/11/09 03:13:05;;;;;;;17.37;9.30;;;3.30;99.90;;;;;;5072103;28;20978;-54
2021/11/09 03:15:34;;;;;;;17.13;9.68;;;3.30;99.90;;;;;;5072765;28;20384;-54
2021/11/09 03:18:04;;;;;;;22.60;10.38;;;3.20;99.90;;;;;;5072107;28;20425;-54
2021/11/09 03:20:36;;;;;;;20.67;9.75;;;3.20;99.90;;;;;;5072984;28;20386;-54
2021/11/09 03:47:25;;;;;;;22.33;9.43;;;2.90;99.90;;;;;;5072546;28;20387;-54
2021/11/09 03:49:53;;;;;;;23.67;11.10;;;3.10;99.90;;;;;;5071801;28;20768;-54
2021/11/09 03:52:23;;;;;;;24.35;11.10;;;3.00;99.90;;;;;;5071962;28;20407;-54
2021/11/09 03:54:56;;;;;;;25.13;12.25;;;3.00;99.90;;;;;;5053728;28;20883;-54
2021/11/09 03:57:31;;;;;;;28.90;12.10;;;4.10;99.90;;;;;;5072508;28;20376;-54
2021/11/09 04:00:10;;;;;;;23.38;12.27;;;3.00;99.90;;;;;;5055036;28;20387;-54
2021/11/09 04:02:55;;;;;;;28.80;12.60;;;2.90;99.90;;;;;;5071978;28;20384;-54
2021/11/09 04:05:26;;;;;;;23.73;12.20;;;2.90;99.90;;;;;;5072200;28;20402;-53
2021/11/09 04:08:05;;;;;;;28.37;12.63;;;2.90;99.90;;;;;;5071409;28;20442;-54
2021/11/09 04:10:37;;;;;;;27.50;14.18;;;2.80;99.90;;;;;;5071801;28;20412;-54
2021/11/09 04:26:17;;;;;;;28.48;12.18;;;2.60;99.90;;;;;;5054078;28;20394;-54
2021/11/09 04:28:58;;;;;;;25.15;12.60;;;4.10;99.90;;;;;;5071669;28;20400;-54
2021/11/09 04:43:11;;;;;;;21.90;11.40;;;3.00;99.90;;;;;;5050882;28;20420;-54
2021/11/09 05:11:14;;;;;;;27.13;13.90;;;2.90;99.90;;;;;;5059801;28;20396;-54
2021/11/09 05:13:40;;;;;;;26.83;13.60;;;2.80;99.90;;;;;;5070202;28;20419;-54
2021/11/09 05:16:06;;;;;;;29.35;14.60;;;2.80;99.90;;;;;;5062163;28;20487;-54
2021/11/09 05:18:32;;;;;;;32.47;14.85;;;2.80;99.90;;;;;;5082659;28;20404;-54
2021/11/09 05:20:58;;;;;;;26.73;13.82;;;2.80;99.90;;;;;;5081148;28;20408;-54
2021/11/09 05:23:24;;;;;;;25.25;13.55;;;2.80;99.90;;;;;;5079332;28;20901;-54
2021/11/09 05:25:51;;;;;;;28.80;14.63;;;2.80;99.90;;;;;;5080932;28;20385;-54
2021/11/09 05:28:17;;;;;;;32.55;14.60;;;2.70;99.90;;;;;;5079283;28;20388;-54
2021/11/09 05:30:47;;;;;;;26.80;13.90;;;2.70;99.90;;;;;;5083165;28;20389;-54
2021/11/09 05:33:13;;;;;;;27.02;14.18;;;2.70;99.90;;;;;;5081203;28;20398;-54
2021/11/09 05:35:38;;;;;;;26.75;14.40;;;3.60;99.90;;;;;;5079607;28;20756;-54
2021/11/09 05:38:05;;;;;;;27.70;13.90;;;2.50;99.90;;;;;;5079876;28;20374;-54
2021/11/09 05:40:35;;;;;;;28.27;14.82;;;2.40;99.90;;;;;;5076410;28;20389;-54
2021/11/09 05:43:01;;;;;;;28.27;14.05;;;4.20;99.90;;;;;;5089538;28;20409;-54
2021/11/09 05:45:28;;;;;;;30.85;14.77;;;2.40;99.90;;;;;;5090066;28;20406;-54
2021/11/09 05:47:54;;;;;;;27.90;13.80;;;2.40;99.90;;;;;;5089908;28;20370;-54
2021/11/09 05:50:20;;;;;;;25.80;13.32;;;2.30;99.90;;;;;;5071553;28;20442;-53
2021/11/09 05:52:47;;;;;;;26.63;13.43;;;2.40;99.90;;;;;;5090145;28;20409;-54
2021/11/09 05:55:12;;;;;;;30.70;14.85;;;2.20;99.90;;;;;;5077745;28;20413;-54
2021/11/09 05:57:38;;;;;;;31.40;15.30;;;2.20;99.90;;;;;;5085805;28;20382;-54
2021/11/09 06:00:06;;;;;;;26.17;12.70;;;2.20;99.90;;;;;;5071374;28;20795;-54
2021/11/09 06:02:31;;;;;;;30.92;13.90;;;2.20;99.90;;;;;;5056673;28;20404;-54
2021/11/09 06:04:58;;;;;;;26.13;13.57;;;2.20;99.90;;;;;;5059122;28;20403;-54
2021/11/09 06:07:24;;;;;;;27.02;14.07;;;2.20;99.90;;;;;;5077750;28;20383;-54
2021/11/09 06:09:50;;;;;;;25.95;13.88;;;2.20;99.90;;;;;;5071273;28;20474;-54
2021/11/09 06:12:15;;;;;;;31.05;14.82;;;2.10;99.90;;;;;;5073858;28;20881;-54
2021/11/09 06:14:41;;;;;;;25.02;14.45;;;3.00;99.90;;;;;;5080054;28;20412;-54
2021/11/09 06:17:07;;;;;;;29.87;15.60;;;2.10;99.90;;;;;;5076647;28;20371;-54
2021/11/09 06:19:32;;;;;;;32.42;15.10;;;1.90;99.90;;;;;;5079405;28;20482;-54
2021/11/09 06:21:58;;;;;;;30.67;14.80;;;1.90;99.90;;;;;;5078927;28;20894;-54
2021/11/09 06:24:24;;;;;;;34.20;16.43;;;2.80;99.90;;;;;;5080328;28;20366;-54
2021/11/09 06:26:50;;;;;;;31.93;15.83;;;2.00;99.90;;;;;;5079864;28;20428;-54
2021/11/09 06:29:16;;;;;;;27.23;15.43;;;2.00;99.90;;;;;;5074549;28;20392;-54
2021/11/09 06:31:42;;;;;;;30.30;15.43;;;2.10;99.90;;;;;;5072796;28;20394;-55
2021/11/09 06:34:08;;;;;;;30.90;16.20;;;3.10;99.90;;;;;;5075121;28;20416;-55
2021/11/09 06:36:34;;;;;;;31.07;17.40;;;2.10;99.90;;;;;;5082832;28;20738;-54
2021/11/09 06:38:59;;;;;;;28.03;15.50;;;3.20;99.90;;;;;;5069141;28;20391;-54
2021/11/09 06:41:25;;;;;;;31.58;15.93;;;3.30;99.90;;;;;;5069041;28;20750;-54
2021/11/09 06:43:51;;;;;;;27.10;15.30;;;2.20;99.90;;;;;;5069133;28;20432;-54
2021/11/09 06:46:16;;;;;;;25.60;14.13;;;2.20;99.90;;;;;;5068489;28;20462;-54
2021/11/09 06:48:45;;;;;;;31.77;15.43;;;2.30;99.90;;;;;;5069418;28;20383;-54
2021/11/09 06:51:10;;;;;;;27.85;16.02;;;2.30;99.90;;;;;;5068689;28;20485;-52
2021/11/09 06:53:36;;;;;;;32.47;16.42;;;2.20;99.90;;;;;;5069291;28;20892;-53
2021/11/09 06:56:02;;;;;;;29.17;15.95;;;2.10;99.90;;;;;;5068253;28;20876;-53
2021/11/09 06:58:28;;;;;;;30.03;16.23;;;2.10;99.90;;;;;;5068945;28;20962;-53
2021/11/09 07:00:54;;;;;;;30.33;16.10;;;2.30;99.90;;;;;;5069696;28;20375;-53
2021/11/09 07:03:20;;;;;;;31.88;15.73;;;2.40;99.90;;;;;;5068019;28;20380;-53
2021/11/09 07:05:47;;;;;;;28.45;16.83;;;3.00;99.90;;;;;;5079317;28;20405;-53
2021/11/09 07:08:12;;;;;;;25.98;15.65;;;3.50;99.90;;;;;;5083403;28;20401;-53
2021/11/09 07:10:44;;;;;;;27.05;14.52;;;2.60;99.90;;;;;;5081805;28;20411;-53
2021/11/09 07:13:10;;;;;;;28.63;14.40;;;2.70;99.90;;;;;;5068831;28;20426;-53
2021/11/09 07:15:36;;;;;;;25.45;14.30;;;2.70;99.90;;;;;;5068733;28;20387;-53
2021/11/09 07:18:02;;;;;;;25.70;14.77;;;2.70;99.90;;;;;;5067987;28;20440;-54
2021/11/09 07:20:28;;;;;;;26.02;15.02;;;2.90;99.90;;;;;;5066550;28;20478;-53
2021/11/09 07:22:54;;;;;;;26.80;15.90;;;3.00;99.90;;;;;;5058954;28;20492;-55
2021/11/09 07:25:19;;;;;;;30.25;17.35;;;3.20;99.90;;;;;;5048907;28;20388;-53
2021/11/09 07:27:46;;;;;;;34.45;18.23;;;4.20;99.90;;;;;;5068765;28;20388;-53
2021/11/09 07:30:13;;;;;;;33.13;17.88;;;3.30;99.90;;;;;;5067123;28;20526;-53
2021/11/09 07:32:39;;;;;;;32.45;16.98;;;3.30;99.90;;;;;;5066880;28;20422;-53
2021/11/09 07:35:07;;;;;;;32.60;16.85;;;3.90;99.90;;;;;;5050071;28;20924;-54
2021/11/09 07:37:32;;;;;;;23.40;13.85;;;5.10;99.90;;;;;;5068767;28;20392;-54
2021/11/09 07:39:58;;;;;;;26.93;15.20;;;6.70;99.90;;;;;;5068525;28;20521;-54
2021/11/09 07:42:24;;;;;;;23.00;13.90;;;8.10;99.90;;;;;;5069113;28;20380;-54
2021/11/09 07:44:51;;;;;;;21.03;14.13;;;9.10;99.90;;;;;;5069521;28;20372;-54
2021/11/09 07:47:17;;;;;;;22.40;14.07;;;9.90;99.90;;;;;;5068570;28;20689;-51
2021/11/09 07:49:43;;;;;;;24.87;16.87;;;10.60;99.90;;;;;;5072560;28;20368;-52
2021/11/09 07:52:11;;;;;;;26.15;18.60;;;11.30;99.90;;;;;;5071361;28;20767;-53
2021/11/09 07:54:38;;;;;;;24.90;22.30;;;;;;;;;;5072981;28;20772;-54
2021/11/09 07:57:08;;;;;;;20.95;13.55;;;12.60;99.90;;;;;;5071791;28;20368;-53
2021/11/09 07:59:45;;;;;;;21.67;16.08;;;13.60;99.90;;;;;;5072709;28;20380;-53
2021/11/09 08:04:46;;;;;;;20.95;16.38;;;14.70;96.10;;;;;;5072494;28;20379;-53
2021/11/09 08:09:41;;;;;;;20.48;13.70;;;15.90;92.40;;;;;;5062197;28;20445;-54
2021/11/09 08:12:07;;;;;;;21.43;15.57;;;16.50;90.50;;;;;;5088800;28;20433;-54
2021/11/09 08:14:33;;;;;;;20.73;14.70;;;16.90;88.30;;;;;;5080760;28;20460;-54
2021/11/09 08:17:00;;;;;;;21.77;14.93;;;17.50;96.60;;;;;;5092093;28;20404;-53
2021/11/09 08:19:26;;;;;;;21.50;13.60;;;16.50;86.20;;;;;;5086422;28;20405;-54
2021/11/09 08:21:54;;;;;;;19.30;13.80;;;15.90;88.60;;;;;;5084148;28;20394;-53
2021/11/09 08:24:21;;;;;;;19.63;13.70;;;16.60;87.20;;;;;;5092199;28;20706;-53
2021/11/09 08:26:48;;;;;;;19.17;14.70;;;16.90;85.20;;;;;;5092020;28;20846;-53
2021/11/09 08:29:14;;;;;;;21.52;13.90;;;17.00;84.30;;;;;;5091113;28;20378;-53
2021/11/09 08:31:43;;;;;;;19.97;14.70;;;17.50;82.60;;;;;;5082947;28;20399;-54
2021/11/09 08:34:10;;;;;;;21.02;14.68;;;18.50;79.30;;;;;;5074281;28;20412;-54
2021/11/09 08:36:36;;;;;;;22.88;14.88;;;18.40;77.40;;;;;;5088660;28;20425;-54
2021/11/09 08:39:05;;;;;;;20.23;13.55;;;18.50;76.30;;;;;;5081546;28;20403;-55
2021/11/09 08:44:35;;;;;;;20.55;12.80;;;18.20;75.00;;;;;;5027940;28;20425;-54
2021/11/09 08:47:02;;;;;;;18.60;13.50;;;18.40;76.10;;;;;;5079408;28;20447;-55
2021/11/09 08:49:30;;;;;;;23.23;13.25;;;18.00;78.10;;;;;;5081996;28;20413;-54
2021/11/09 08:51:59;;;;;;;19.92;12.57;;;17.90;77.40;;;;;;5062615;28;20772;-53
2021/11/09 08:54:28;;;;;;;21.07;12.07;;;18.10;76.40;;;;;;5081165;28;20488;-53
2021/11/09 09:04:56;;;;;;;16.73;10.30;;;18.10;78.00;;;;;;5081705;28;20477;-53
2021/11/09 09:07:27;;;;;;;17.47;8.90;;;18.10;76.90;;;;;;5081694;28;21028;-53
2021/11/09 09:09:54;;;;;;;16.27;9.50;;;18.50;75.70;;;;;;5062024;28;20415;-53
2021/11/09 09:12:20;;;;;;;14.65;9.70;;;18.90;72.30;;;;;;5080410;28;20428;-53
2021/11/09 09:14:47;;;;;;;21.70;9.52;;;19.10;73.40;;;;;;5083683;28;20912;-55
2021/11/09 09:17:13;;;;;;;14.45;10.45;;;19.30;73.80;;;;;;5072983;28;20389;-53
2021/11/09 09:19:46;;;;;;;14.43;8.60;;;20.20;70.60;;;;;;5075585;28;20880;-54
2021/11/09 09:22:15;;;;;;;15.50;9.48;;;20.50;68.60;;;;;;5064081;28;21011;-53
2021/11/09 09:56:59;;;;;;;10.98;5.60;;;17.40;67.90;;;;;;5079266;28;20397;-53
2021/11/09 09:59:28;;;;;;;14.90;6.50;;;18.10;67.40;;;;;;5074605;28;20509;-53
2021/11/09 10:02:06;;;;;;;11.47;5.90;;;18.50;65.40;;;;;;5074078;28;20441;-53
2021/11/09 10:04:35;;;;;;;12.10;5.97;;;19.40;62.60;;;;;;5074174;28;20869;-54
2021/11/09 10:07:01;;;;;;;11.77;5.60;;;19.50;63.60;;;;;;5069549;28;20483;-53
2021/11/09 10:09:44;;;;;;;12.40;6.00;;;20.40;62.00;;;;;;5079393;28;20378;-53
2021/11/09 10:12:36;;;;;;;12.88;6.15;;;20.30;62.30;;;;;;5087348;28;20414;-54
2021/11/09 10:15:08;;;;;;;11.02;6.03;;;20.20;61.40;;;;;;5076015;28;20594;-53
2021/11/09 10:17:36;;;;;;;15.80;6.80;;;20.20;60.70;;;;;;5071953;28;20729;-53
2021/11/09 10:20:14;;;;;;;11.18;6.05;;;19.70;61.10;;;;;;5090162;28;20447;-53
2021/11/09 10:22:41;;;;;;;10.15;5.50;;;19.60;62.10;;;;;;5071598;28;20393;-53
2021/11/09 10:25:14;;;;;;;11.45;5.55;;;19.50;59.70;;;;;;5089211;28;20464;-54
2021/11/09 10:27:41;;;;;;;13.27;8.25;;;19.00;62.90;;;;;;5089790;28;20400;-53
2021/11/09 10:30:14;;;;;;;10.07;5.20;;;18.90;63.70;;;;;;5089011;28;20382;-54
2021/11/09 10:32:40;;;;;;;9.40;4.80;;;18.80;62.70;;;;;;5089516;28;20405;-53
2021/11/09 10:35:09;;;;;;;11.93;4.65;;;18.50;63.60;;;;;;5089270;28;20874;-54
2021/11/09 10:37:38;;;;;;;10.60;5.03;;;18.40;61.20;;;;;;5089452;28;20907;-53
2021/11/09 10:40:13;;;;;;;12.13;4.60;;;18.40;62.20;;;;;;5089364;28;20393;-53
2021/11/09 10:42:40;;;;;;;12.45;9.23;;;18.00;62.60;;;;;;5089319;28;20928;-53
2021/11/09 10:45:12;;;;;;;12.88;7.75;;;18.30;65.20;;;;;;5089610;28;20370;-53
2021/11/09 10:47:57;;;;;;;10.23;5.50;;;18.20;65.10;;;;;;5089732;28;20473;-53
2021/11/09 10:50:26;;;;;;;9.98;4.60;;;18.10;63.30;;;;;;5089308;28;20377;-53
2021/11/09 10:53:21;;;;;;;11.73;8.50;;;18.30;60.80;;;;;;5089987;28;20412;-52
2021/11/09 11:06:22;;;;;;;9.60;7.80;;;16.40;64.60;;;;;;5089832;28;20404;-53
2021/11/09 11:08:52;;;;;;;10.43;9.20;;;16.40;65.50;;;;;;5089487;28;20390;-53
2021/11/09 11:11:31;;;;;;;14.88;10.10;;;16.00;68.20;;;;;;5077335;28;20411;-53
2021/11/09 11:14:09;;;;;;;9.98;8.95;;;15.20;70.40;;;;;;5060067;28;20409;-52
2021/11/09 11:16:54;;;;;;;11.07;7.20;;;14.80;69.90;;;;;;5049014;28;20389;-52
2021/11/09 11:19:28;;;;;;;12.20;9.57;;;14.30;70.10;;;;;;5048097;28;20385;-52
2021/11/09 11:21:55;;;;;;;11.45;7.80;;;13.70;77.20;;;;;;5050356;28;20388;-53
2021/11/09 11:24:21;;;;;;;9.57;7.07;;;13.40;76.40;;;;;;5054032;28;20465;-52
2021/11/09 11:26:49;;;;;;;11.20;7.13;;;13.10;77.60;;;;;;5072618;28;20376;-52
2021/11/09 11:29:17;;;;;;;10.25;6.97;;;12.80;76.60;;;;;;5071919;28;20387;-53
2021/11/09 11:31:43;;;;;;;10.10;6.50;;;12.60;79.10;;;;;;5071200;28;20395;-52
2021/11/09 11:34:09;;;;;;;9.48;6.40;;;12.90;80.90;;;;;;5071862;28;20492;-53
2021/11/09 11:36:35;;;;;;;8.50;6.30;;;13.00;80.60;;;;;;5065675;28;20405;-53
2021/11/09 11:39:07;;;;;;;9.13;6.10;;;13.10;80.00;;;;;;5067550;28;20766;-53
2021/11/09 11:41:36;;;;;;;9.20;6.30;;;13.00;79.30;;;;;;5063993;28;20436;-52
2021/11/09 11:44:07;;;;;;;9.45;6.10;;;13.10;82.40;;;;;;5061107;28;20411;-52
2021/11/09 11:46:33;;;;;;;10.35;6.50;;;13.10;81.70;;;;;;5065365;28;20412;-52
2021/11/09 11:49:00;;;;;;;9.85;6.00;;;12.80;82.20;;;;;;5059933;28;20393;-53
2021/11/09 11:51:28;;;;;;;11.98;5.63;;;12.90;81.80;;;;;;5066780;28;20407;-52
2021/11/09 11:53:55;;;;;;;11.00;6.03;;;13.00;80.80;;;;;;5051663;28;20437;-53
2021/11/09 11:56:43;;;;;;;10.63;6.50;;;12.70;83.10;;;;;;5064795;28;20404;-52
2021/11/09 11:59:23;;;;;;;9.43;5.90;;;12.70;83.20;;;;;;5049518;28;20396;-52
2021/11/09 12:01:50;;;;;;;11.82;6.03;;;12.60;82.60;;;;;;5064186;28;20415;-52
2021/11/09 12:04:42;;;;;;;10.63;6.25;;;12.50;84.60;;;;;;5064943;28;20396;-52
2021/11/09 12:07:14;;;;;;;11.38;6.55;;;12.70;84.50;;;;;;5041911;28;20388;-52
2021/11/09 12:09:42;;;;;;;12.67;7.10;;;13.00;85.40;;;;;;5061161;28;20471;-52
2021/11/09 12:12:17;;;;;;;8.98;6.45;;;13.30;83.20;;;;;;5073685;28;20403;-52
2021/11/09 12:14:56;;;;;;;9.70;6.47;;;13.20;81.30;;;;;;5087160;28;20419;-52
2021/11/09 12:17:42;;;;;;;11.38;6.40;;;13.10;82.70;;;;;;5088864;28;20932;-52
2021/11/09 12:20:14;;;;;;;9.30;5.70;;;12.90;82.30;;;;;;5083045;28;20496;-52
2021/11/09 12:22:43;;;;;;;10.90;5.60;;;13.00;83.30;;;;;;5079370;28;20396;-52
2021/11/09 12:25:15;;;;;;;10.43;5.63;;;13.00;83.10;;;;;;5082165;28;20374;-52
2021/11/09 12:27:46;;;;;;;9.45;5.72;;;13.20;84.20;;;;;;5077949;28;20406;-52
2021/11/09 12:30:13;;;;;;;9.98;5.90;;;13.30;83.80;;;;;;5083354;28;20381;-53
2021/11/09 12:32:42;;;;;;;10.05;5.72;;;13.40;82.10;;;;;;5079929;28;20474;-52
2021/11/09 12:35:25;;;;;;;9.33;6.40;;;13.50;82.80;;;;;;5081178;28;20406;-52
2021/11/09 12:38:02;;;;;;;6.30;5.00;;;13.40;80.60;;;;;;5078890;28;20416;-52
2021/11/09 12:40:38;;;;;;;8.80;5.10;;;13.30;81.20;;;;;;5081155;28;20435;-52
2021/11/09 12:43:04;;;;;;;7.88;5.03;;;13.00;82.10;;;;;;5073811;28;20413;-52
2021/11/09 12:45:31;;;;;;;9.07;5.10;;;12.70;80.70;;;;;;5084206;28;20382;-52
2021/11/09 12:48:01;;;;;;;7.47;4.82;;;12.50;81.40;;;;;;5080162;28;20383;-52
2021/11/09 12:50:27;;;;;;;8.85;5.32;;;12.30;80.60;;;;;;5077027;28;20398;-54
2021/11/09 12:53:13;;;;;;;10.65;5.68;;;12.30;82.50;;;;;;5075469;28;20479;-55
2021/11/09 12:55:40;;;;;;;9.20;5.03;;;12.30;83.00;;;;;;5071141;28;20446;-52
2021/11/09 12:58:25;;;;;;;7.43;4.70;;;12.40;83.50;;;;;;5086930;28;20684;-52
2021/11/09 13:01:05;;;;;;;10.25;4.90;;;12.70;84.80;;;;;;5077337;28;20385;-52
2021/11/09 13:03:35;;;;;;;10.23;5.13;;;13.00;84.20;;;;;;5079957;28;20409;-53
2021/11/09 13:06:16;;;;;;;8.13;4.78;;;13.30;85.60;;;;;;5083530;28;20401;-52
2021/11/09 13:08:58;;;;;;;9.80;5.03;;;13.40;82.00;;;;;;5085126;28;20405;-52
2021/11/09 13:11:36;;;;;;;7.25;5.10;;;13.20;79.90;;;;;;5079662;28;20420;-52
2021/11/09 13:14:07;;;;;;;9.88;4.70;;;13.10;80.00;;;;;;5080083;28;20743;-52
2021/11/09 13:16:32;;;;;;;8.50;5.13;;;13.10;81.80;;;;;;5064145;28;20897;-52
2021/11/09 13:19:05;;;;;;;9.35;5.00;;;13.00;80.20;;;;;;5084422;28;20509;-52
2021/11/09 13:21:31;;;;;;;7.80;5.10;;;13.10;81.70;;;;;;5081846;28;20393;-52
2021/11/09 13:23:57;;;;;;;7.88;5.20;;;12.90;81.80;;;;;;5078520;28;20387;-52
2021/11/09 13:26:22;;;;;;;7.40;5.10;;;12.60;81.10;;;;;;5083745;28;20376;-52
2021/11/09 13:28:48;;;;;;;9.05;5.70;;;12.60;81.20;;;;;;5071703;28;20396;-52
2021/11/09 13:31:15;;;;;;;8.97;5.40;;;12.60;83.20;;;;;;5081768;28;20465;-52
2021/11/09 13:33:44;;;;;;;9.30;5.50;;;12.70;84.50;;;;;;5075626;28;20422;-52
2021/11/09 13:36:10;;;;;;;8.13;3.80;;;12.90;82.30;;;;;;5080084;28;20366;-52
2021/11/09 13:38:42;;;;;;;7.10;4.60;;;12.80;82.50;;;;;;5083003;28;20584;-52
2021/11/09 13:41:21;;;;;;;7.90;5.30;;;12.70;82.50;;;;;;5090339;28;20397;-52
2021/11/09 13:43:52;;;;;;;8.83;4.70;;;12.90;82.70;;;;;;5084594;28;20458;-52
2021/11/09 13:46:21;;;;;;;7.60;4.50;;;12.80;84.30;;;;;;5068271;28;20758;-53
2021/11/09 13:48:49;;;;;;;9.00;4.50;;;12.70;86.60;;;;;;5085313;28;20390;-52
2021/11/09 13:51:20;;;;;;;8.43;4.90;;;12.50;86.30;;;;;;5072670;28;20380;-53
2021/11/09 13:53:49;;;;;;;10.90;4.80;;;12.50;86.80;;;;;;5084745;28;20468;-52
2021/11/09 13:56:18;;;;;;;7.60;5.40;;;12.60;86.10;;;;;;5078643;28;20473;-53
2021/11/09 13:58:57;;;;;;;8.38;5.32;;;12.50;86.50;;;;;;5076481;28;20478;-52
2021/11/09 14:01:42;;;;;;;9.77;4.70;;;12.50;86.20;;;;;;5078773;28;20411;-52
2021/11/09 14:12:53;;;;;;;13.70;5.00;;;12.60;88.00;;;;;;5072661;28;20411;-53
2021/11/09 14:15:48;;;;;;;10.38;4.95;;;12.60;86.40;;;;;;5087755;28;20386;-53
2021/11/09 14:18:18;;;;;;;9.75;4.75;;;12.50;85.90;;;;;;5078095;28;20840;-54
2021/11/09 14:20:57;;;;;;;10.10;5.60;;;12.60;85.70;;;;;;5082293;28;20387;-53
2021/11/09 14:23:32;;;;;;;8.90;4.60;;;12.50;85.30;;;;;;5071230;28;20409;-53
2021/11/09 14:25:59;;;;;;;8.48;5.20;;;12.30;85.90;;;;;;5082814;28;20410;-53
2021/11/09 14:28:37;;;;;;;7.40;4.78;;;12.20;85.50;;;;;;5077560;28;20905;-53
2021/11/09 14:31:35;;;;;;;8.07;5.05;;;12.10;87.00;;;;;;5085022;28;20383;-53
2021/11/09 14:34:15;;;;;;;11.85;4.80;;;12.10;85.90;;;;;;5071073;28;20474;-53
2021/11/09 14:36:43;;;;;;;7.73;4.90;;;12.10;87.00;;;;;;5079952;28;20852;-53
2021/11/09 14:39:17;;;;;;;7.00;4.90;;;12.10;87.40;;;;;;5071390;28;20401;-53
2021/11/09 14:45:03;;;;;;;12.40;5.10;;;11.80;89.60;;;;;;5078275;28;20451;-53
2021/11/09 14:47:45;;;;;;;10.82;5.40;;;11.70;90.30;;;;;;5078534;28;20902;-53
2021/11/09 14:50:24;;;;;;;12.70;5.40;;;11.70;90.80;;;;;;5086515;28;20388;-53
2021/11/09 14:52:51;;;;;;;9.57;4.80;;;11.60;90.40;;;;;;5072643;28;20402;-53
2021/11/09 14:55:21;;;;;;;8.80;4.60;;;11.50;90.50;;;;;;5081536;28;20485;-54
2021/11/09 14:57:48;;;;;;;10.18;5.43;;;11.40;90.70;;;;;;5072632;28;20383;-53
2021/11/09 15:00:16;;;;;;;14.77;5.30;;;11.40;91.30;;;;;;5083056;28;20385;-53
2021/11/09 15:02:42;;;;;;;10.48;5.40;;;11.20;91.00;;;;;;5087210;28;20875;-53
2021/11/09 15:05:13;;;;;;;8.20;4.60;;;11.20;90.70;;;;;;5082345;28;20386;-53
2021/11/09 15:29:13;;;;;;;10.63;3.70;;;10.70;94.00;;;;;;5084442;28;20492;-52
2021/11/09 15:31:58;;;;;;;9.20;4.40;;;10.70;94.60;;;;;;5085776;28;20486;-53
2021/11/09 15:34:51;;;;;;;8.50;4.18;;;10.80;94.90;;;;;;5080953;28;20501;-53
2021/11/09 15:37:27;;;;;;;8.07;3.90;;;10.70;95.20;;;;;;5084890;28;20395;-52
2021/11/09 15:39:58;;;;;;;10.73;4.35;;;10.60;95.60;;;;;;5085255;28;20494;-52
2021/11/09 15:42:24;;;;;;;8.10;3.95;;;10.60;96.00;;;;;;5081104;28;20391;-56
2021/11/09 15:44:50;;;;;;;17.70;4.93;;;10.60;96.40;;;;;;5081168;28;20390;-53
2021/11/09 15:47:15;;;;;;;9.60;4.47;;;10.60;96.60;;;;;;5077942;28;20542;-55
2021/11/09 15:49:43;;;;;;;8.50;3.83;;;10.40;97.00;;;;;;5079241;28;20447;-53
2021/11/09 15:52:08;;;;;;;10.90;4.28;;;10.40;97.40;;;;;;5085123;28;20403;-53